Terminal Aerodrome Forecast
Issued by NWS

Current Version | Previous Version | Text Only | Print | Product List | Glossary On
Versions: 1 2 3 4 5 6 7 8 9 10 11 12 13 14 15
350
FTUS41 KPHI 270538
TAFPNE
TAF
KPNE 270538Z 2706/2806 20003KT P6SM SCT250
     FM271400 19007KT P6SM SCT070 BKN200
     FM272100 19009KT P6SM BKN050
     FM272300 19006KT P6SM VCSH BKN040
     FM280300 19005KT 6SM BR BKN025
     FM280500 19003KT 5SM BR BKN010=

USA.gov is the U.S. government's official web portal to all federal, state and local government web resources and services.